Time;durP1;ratioP1;P1;durP2;ratioP2;P2;SDS_P1;SDS_P2;PMS_P1;PMS_P2;Temp;Humidity;BMP_temperature;BMP_pressure;BME280_temperature;BME280_humidity;BME280_pressure;Samples;Min_cycle;Max_cycle;Signal;HPM_P1;HPM_P2
2022/12/06 00:00:15;;;;;;;2.53;1.20;;;;;;;20.14;59.44;98738.28;2070025;28;20406;-45
2022/12/06 00:01:19;;;;;;;2.83;1.08;;;;;;;20.11;59.38;98733.31;2069973;28;20060;-48
2022/12/06 00:02:20;;;;;;;2.70;1.50;;;;;;;20.12;59.67;98735.00;2069023;28;20049;-46
2022/12/06 00:03:22;;;;;;;2.70;1.48;;;;;;;20.13;59.38;98742.84;2070202;28;20189;-45
2022/12/06 00:04:23;;;;;;;1.55;1.23;;;;;;;20.13;59.65;98739.34;2069664;28;20057;-45
2022/12/06 00:05:24;;;;;;;;;;;;;;;19.97;59.60;98738.72;2073097;28;20059;-49
2022/12/06 00:06:27;;;;;;;2.97;1.80;;;;;;;20.04;59.87;98739.56;2069842;28;19922;-46
2022/12/06 00:07:29;;;;;;;2.55;1.70;;;;;;;20.06;59.77;98736.66;2070534;28;20092;-48
2022/12/06 00:08:30;;;;;;;1.88;1.40;;;;;;;20.07;59.60;98738.31;2068872;28;21406;-47
2022/12/06 00:09:32;;;;;;;;;;;;;;;19.96;59.75;98736.25;2070427;28;20045;-45
2022/12/06 00:10:34;;;;;;;4.43;1.65;;;;;;;20.02;59.49;98746.19;2069053;28;20506;-47
2022/12/06 00:11:36;;;;;;;2.65;1.45;;;;;;;20.05;59.53;98740.38;2070718;28;20128;-46
2022/12/06 00:12:39;;;;;;;1.67;1.33;;;;;;;20.07;59.33;98747.22;2069863;28;20055;-46
2022/12/06 00:13:41;;;;;;;1.95;1.25;;;;;;;20.07;59.69;98741.81;2070329;28;20045;-48
2022/12/06 00:14:42;;;;;;;3.80;1.45;;;;;;;20.07;59.47;98746.38;2070591;28;20057;-45
2022/12/06 00:15:44;;;;;;;;;;;;;;;19.93;59.67;98742.91;2070561;28;20065;-46
2022/12/06 00:16:45;;;;;;;;;;;;;;;19.81;59.98;98745.41;2070745;28;19925;-46
2022/12/06 00:17:46;;;;;;;1.10;1.00;;;;;;;19.92;60.08;98743.94;2067889;28;19926;-45
2022/12/06 00:18:48;;;;;;;2.60;1.42;;;;;;;19.95;59.48;98735.44;2069960;28;20053;-50
2022/12/06 00:19:49;;;;;;;1.70;1.50;;;;;;;19.98;59.49;98740.41;2069258;28;20046;-47
2022/12/06 00:20:50;;;;;;;3.58;1.52;;;;;;;19.99;59.44;98738.53;2070068;28;20057;-46
2022/12/06 00:21:53;;;;;;;;;;;;;;;19.85;59.85;98735.84;2070337;28;20054;-47
2022/12/06 00:22:53;;;;;;;2.67;1.73;;;;;;;19.89;59.70;98724.66;2068700;28;19960;-46
2022/12/06 00:23:58;;;;;;;2.65;1.35;;;;;;;19.94;59.83;98731.06;2070154;28;20060;-48
2022/12/06 00:24:58;;;;;;;3.30;1.10;;;;;;;19.95;59.60;98729.25;2069634;28;20558;-47
2022/12/06 00:26:00;;;;;;;;;;;;;;;19.82;60.21;98735.47;2071103;28;20060;-48
2022/12/06 00:27:01;;;;;;;2.80;1.40;;;;;;;19.83;59.70;98732.53;2070713;28;19941;-47
2022/12/06 00:28:04;;;;;;;;;;;;;;;19.74;60.26;98728.41;2069916;28;20623;-45
2022/12/06 00:29:06;;;;;;;2.90;1.20;;;;;;;19.81;60.19;98729.25;2070024;28;19925;-48
2022/12/06 00:30:09;;;;;;;2.00;1.15;;;;;;;19.86;60.05;98726.75;2067688;28;20046;-47
2022/12/06 00:31:14;;;;;;;1.73;1.30;;;;;;;19.90;59.92;98727.16;2070386;28;20042;-46
2022/12/06 00:32:15;;;;;;;1.58;1.25;;;;;;;19.90;59.79;98726.34;2070844;28;20099;-45
2022/12/06 00:33:16;;;;;;;2.80;1.67;;;;;;;19.90;59.77;98726.34;2070590;28;20560;-46
2022/12/06 00:34:18;;;;;;;;;;;;;;;19.77;59.86;98716.41;2072412;28;20052;-48
2022/12/06 00:35:18;;;;;;;;;;;;;;;19.68;60.14;98717.66;2070090;28;20408;-45
2022/12/06 00:36:22;;;;;;;0.90;0.90;;;;;;;19.73;60.31;98725.94;2069584;28;19928;-45
2022/12/06 00:37:23;;;;;;;1.95;1.50;;;;;;;19.79;59.87;98723.25;2070028;28;20517;-46
2022/12/06 00:38:24;;;;;;;;;;;;;;;19.68;60.08;98709.59;2069416;28;20046;-49
2022/12/06 00:39:26;;;;;;;3.45;1.95;;;;;;;19.73;60.17;98720.56;2069947;28;19925;-47
2022/12/06 00:40:27;;;;;;;1.85;1.65;;;;;;;19.78;59.87;98724.28;2071259;28;20405;-47
2022/12/06 00:41:29;;;;;;;;;;;;;;;19.69;60.00;98719.31;2070806;28;20060;-47
2022/12/06 00:42:29;;;;;;;;;;;;;;;19.58;60.33;98723.44;2070335;28;19929;-44
2022/12/06 00:43:33;;;;;;;1.73;1.63;;;;;;;19.67;60.49;98722.22;2069817;28;20472;-45
2022/12/06 00:44:34;;;;;;;2.40;1.40;;;;;;;19.71;60.11;98722.63;2067705;28;20046;-45
2022/12/06 00:45:36;;;;;;;;;;;;;;;19.59;60.26;98720.53;2070859;28;20144;-45
2022/12/06 00:46:37;;;;;;;2.15;1.45;;;;;;;19.67;60.22;98716.00;2070206;28;19925;-47
2022/12/06 00:47:39;;;;;;;1.58;1.48;;;;;;;19.73;60.26;98721.41;2072902;28;20053;-46
2022/12/06 00:48:39;;;;;;;2.90;1.50;;;;;;;19.74;59.71;98723.03;2068490;28;20042;-47
2022/12/06 00:49:41;;;;;;;;;;;;;;;19.65;60.15;98716.19;2070727;28;20063;-45
2022/12/06 00:50:42;;;;;;;1.92;1.20;;;;;;;19.67;60.25;98719.53;2069357;28;19925;-44
2022/12/06 00:51:43;;;;;;;1.38;1.00;;;;;;;19.72;60.10;98719.72;2069745;28;20046;-47
2022/12/06 00:52:44;;;;;;;3.03;1.30;;;;;;;19.74;59.72;98719.53;2069565;28;20463;-47
2022/12/06 00:53:46;;;;;;;;;;;;;;;19.61;60.10;98712.25;2072055;28;20157;-45
2022/12/06 00:54:48;;;;;;;1.90;1.30;;;;;;;19.64;60.44;98714.53;2069807;28;20610;-49
2022/12/06 00:55:49;;;;;;;2.42;1.73;;;;;;;19.67;60.08;98719.53;2069614;28;20049;-46
2022/12/06 00:56:51;;;;;;;;;;;;;;;19.57;60.18;98719.09;2068651;28;20077;-46
2022/12/06 00:57:51;;;;;;;2.47;1.58;;;;;;;19.61;60.47;98717.63;2061683;28;19928;-48
2022/12/06 00:58:54;;;;;;;;;;;;;;;19.52;60.62;98725.09;2068496;28;20622;-46
2022/12/06 00:59:55;;;;;;;1.70;1.05;;;;;;;19.60;60.17;98721.38;2069494;28;19926;-48
2022/12/06 01:01:06;;;;;;;;;;;;;;;19.53;60.37;98720.53;2070976;28;20057;-44
2022/12/06 01:02:08;;;;;;;1.48;1.20;;;;;;;19.56;60.27;98720.13;2068463;28;20266;-45
2022/12/06 01:03:10;;;;;;;2.42;1.67;;;;;;;19.61;60.21;98707.72;2068924;28;20068;-46
2022/12/06 01:04:11;;;;;;;1.70;1.02;;;;;;;19.63;60.12;98713.69;2067139;28;20053;-45
2022/12/06 01:05:12;;;;;;;;;;;;;;;19.54;60.06;98714.13;2071483;28;20052;-50
2022/12/06 01:06:14;;;;;;;2.35;1.42;;;;;;;19.58;60.46;98713.50;2071223;28;20620;-45
2022/12/06 01:07:16;;;;;;;2.65;1.10;;;;;;;19.63;60.32;98713.69;2068606;28;20049;-45
2022/12/06 01:08:18;;;;;;;1.80;1.17;;;;;;;19.65;60.04;98718.88;2068229;28;20049;-47
2022/12/06 01:09:20;;;;;;;2.67;1.35;;;;;;;19.67;59.84;98719.53;2068928;28;20057;-44
2022/12/06 01:10:21;;;;;;;1.95;1.42;;;;;;;19.68;59.64;98720.38;2070078;28;20417;-48
2022/12/06 01:11:24;;;;;;;1.80;1.23;;;;;;;19.67;59.71;98724.91;2069725;28;20465;-48
2022/12/06 01:12:25;;;;;;;2.10;1.10;;;;;;;19.67;60.00;98710.63;2068830;28;20041;-45
2022/12/06 01:13:27;;;;;;;;;;;;;;;19.54;60.20;98716.81;2070019;28;20052;-47
2022/12/06 01:14:29;;;;;;;2.47;1.60;;;;;;;19.58;59.90;98718.03;2067217;28;20428;-46
2022/12/06 01:15:31;;;;;;;1.95;1.52;;;;;;;19.61;60.22;98723.00;2069822;28;20054;-48
2022/12/06 01:16:31;;;;;;;3.80;2.03;;;;;;;19.61;60.02;98712.25;2070896;28;20505;-47
2022/12/06 01:17:34;;;;;;;;;;;;;;;19.51;60.10;98717.25;2070513;28;20052;-45
2022/12/06 01:18:35;;;;;;;2.28;1.05;;;;;;;19.55;59.86;98713.09;2067463;28;19921;-46
2022/12/06 01:19:37;;;;;;;1.95;1.17;;;;;;;19.58;60.21;98707.28;2070386;28;20053;-47
2022/12/06 01:20:38;;;;;;;2.00;1.27;;;;;;;19.61;59.95;98701.47;2069223;28;20958;-48
2022/12/06 01:21:39;;;;;;;;;;;;;;;19.48;60.09;98706.91;2071496;28;20053;-48
2022/12/06 01:22:40;;;;;;;2.03;1.23;;;;;;;19.51;60.10;98698.41;2069338;28;20372;-46
2022/12/06 01:23:43;;;;;;;2.00;1.27;;;;;;;19.55;60.09;98707.69;2071203;28;20057;-46
2022/12/06 01:24:46;;;;;;;2.05;1.27;;;;;;;19.57;60.07;98703.78;2070931;28;20080;-45
2022/12/06 01:25:51;;;;;;;1.42;1.10;;;;;;;19.58;59.99;98704.59;2070096;28;20065;-45
2022/12/06 01:26:53;;;;;;;2.47;1.50;;;;;;;19.60;59.81;98705.22;2069664;28;20076;-45
2022/12/06 01:27:53;;;;;;;1.27;1.10;;;;;;;19.61;59.94;98706.88;2071823;28;20045;-44
2022/12/06 01:28:55;;;;;;;;;;;;;;;19.49;60.25;98708.53;2067816;28;20532;-47
2022/12/06 01:29:57;;;;;;;;;;;;;;;19.37;60.36;98711.84;2073011;28;19936;-46
2022/12/06 01:30:59;;;;;;;1.80;1.10;;;;;;;19.43;60.12;98711.00;2069501;28;19933;-46
2022/12/06 01:31:59;;;;;;;1.55;0.90;;;;;;;19.48;59.92;98707.72;2070019;28;20072;-46
2022/12/06 01:33:01;;;;;;;;;;;;;;;19.38;60.25;98701.91;2071515;28;20601;-47
2022/12/06 01:34:02;;;;;;;1.65;1.23;;;;;;;19.42;59.97;98701.31;2069244;28;19932;-49
2022/12/06 01:35:04;;;;;;;0.80;0.70;;;;;;;19.46;59.95;98690.13;2068871;28;20054;-46
2022/12/06 01:36:05;;;;;;;1.98;1.27;;;;;;;19.49;60.15;98687.03;2069914;28;20046;-48
2022/12/06 01:37:07;;;;;;;1.60;0.95;;;;;;;19.49;60.07;98687.03;2067462;28;20077;-46
2022/12/06 01:38:09;;;;;;;1.65;0.90;;;;;;;19.51;59.82;98693.03;2069780;28;20057;-46
2022/12/06 01:39:11;;;;;;;3.45;1.45;;;;;;;19.52;60.11;98695.50;2067969;28;20092;-46
2022/12/06 01:40:13;;;;;;;1.35;1.25;;;;;;;19.51;59.63;98704.59;2069548;28;20056;-46
2022/12/06 01:41:15;;;;;;;3.33;1.27;;;;;;;19.51;59.63;98698.41;2066642;28;20529;-46
2022/12/06 01:42:16;;;;;;;2.25;1.33;;;;;;;19.51;59.72;98701.09;2067330;28;20042;-46
2022/12/06 01:43:36;;;;;;;2.40;1.50;;;;;;;19.46;59.79;98698.19;2067776;28;20438;-46
2022/12/06 01:44:43;;;;;;;1.48;1.10;;;;;;;19.47;59.78;98705.22;2066760;28;20037;-46
2022/12/06 01:45:45;;;;;;;2.78;1.63;;;;;;;19.47;59.87;98705.22;2070308;28;20058;-46
2022/12/06 01:46:47;;;;;;;2.38;1.58;;;;;;;19.47;59.87;98692.59;2067947;28;20771;-46
2022/12/06 01:47:49;;;;;;;3.78;1.48;;;;;;;19.47;59.77;98702.53;2066940;28;20049;-46
2022/12/06 01:48:55;;;;;;;1.40;1.23;;;;;;;19.47;59.75;98697.97;2067320;28;20111;-46
2022/12/06 01:50:01;;;;;;;3.95;1.73;;;;;;;19.46;59.91;98693.63;2069551;28;20045;-45
2022/12/06 01:51:05;;;;;;;1.73;1.50;;;;;;;19.45;59.81;98689.31;2069095;28;20050;-46
2022/12/06 01:52:09;;;;;;;1.98;1.23;;;;;;;19.45;59.72;98691.16;2066959;28;20060;-46
2022/12/06 01:53:12;;;;;;;2.03;1.10;;;;;;;19.46;59.91;98687.44;2066528;28;20160;-46
2022/12/06 01:54:14;;;;;;;1.52;1.20;;;;;;;19.45;60.13;98689.31;2067227;28;20049;-46
2022/12/06 01:55:19;;;;;;;1.77;1.50;;;;;;;19.42;59.87;98690.53;2070439;28;20104;-46
2022/12/06 01:56:20;;;;;;;1.70;1.45;;;;;;;19.39;60.17;98680.22;2067627;28;20057;-45
2022/12/06 01:57:22;;;;;;;2.38;1.45;;;;;;;19.40;60.16;98689.91;2065156;28;20139;-46
2022/12/06 01:58:29;;;;;;;0.90;0.77;;;;;;;19.40;59.80;98684.53;2067125;28;20050;-47
2022/12/06 01:59:31;;;;;;;1.27;1.17;;;;;;;19.40;60.30;98691.78;2068526;28;20057;-46
2022/12/06 02:00:32;;;;;;;3.08;1.52;;;;;;;19.37;59.95;98679.56;2069967;28;20049;-45
2022/12/06 02:01:35;;;;;;;;;;;;;;;19.21;60.70;98682.69;2069219;28;20046;-46
2022/12/06 02:02:37;;;;;;;2.53;1.33;;;;;;;19.28;60.38;98675.44;2067624;28;19929;-46
2022/12/06 02:03:39;;;;;;;2.00;1.58;;;;;;;19.32;60.50;98681.22;2066696;28;20132;-46
2022/12/06 02:04:42;;;;;;;1.40;1.30;;;;;;;19.32;60.09;98676.69;2066903;28;20049;-50
2022/12/06 02:05:43;;;;;;;2.17;1.42;;;;;;;19.32;60.40;98686.63;2067744;28;20053;-46
2022/12/06 02:06:46;;;;;;;2.40;1.23;;;;;;;19.33;60.35;98683.69;2066272;28;21822;-46
2022/12/06 02:07:47;;;;;;;2.67;1.30;;;;;;;19.35;59.88;98687.00;2068975;28;20045;-45
2022/12/06 02:08:49;;;;;;;;;;;;;;;19.23;60.35;98679.78;2065363;28;20068;-49
2022/12/06 02:09:52;;;;;;;2.42;1.13;;;;;;;19.27;60.19;98686.41;2067618;28;19921;-47
2022/12/06 02:10:53;;;;;;;2.83;2.08;;;;;;;19.29;60.05;98677.09;2067279;28;20091;-49
2022/12/06 02:11:55;;;;;;;1.98;1.20;;;;;;;19.29;60.12;98681.66;2067305;28;20128;-45
2022/12/06 02:12:58;;;;;;;1.48;1.33;;;;;;;19.31;60.00;98679.59;2067879;28;20045;-46
2022/12/06 02:14:00;;;;;;;1.50;1.00;;;;;;;19.30;60.06;98669.84;2069799;28;20053;-46
2022/12/06 02:15:02;;;;;;;2.13;1.10;;;;;;;19.28;59.87;98664.69;2069392;28;20050;-46
2022/12/06 02:16:18;;;;;;;2.38;1.30;;;;;;;19.27;59.92;98668.41;2068347;28;20054;-46
2022/12/06 02:17:33;;;;;;;1.88;1.15;;;;;;;19.25;60.30;98665.13;2068512;28;20050;-47
2022/12/06 02:18:41;;;;;;;1.23;1.00;;;;;;;19.25;60.14;98664.25;2066953;28;20663;-45
2022/12/06 02:20:04;;;;;;;2.17;1.55;;;;;;;19.21;60.20;98663.84;2067754;28;20053;-46
2022/12/06 02:21:16;;;;;;;3.15;1.70;;;;;;;19.19;60.63;98671.28;2065765;28;20060;-45
2022/12/06 02:22:25;;;;;;;1.38;1.27;;;;;;;19.22;60.56;98672.75;2069944;28;20099;-48
2022/12/06 02:24:01;;;;;;;2.08;1.10;;;;;;;19.17;60.56;98671.50;2067254;28;20045;-46
2022/12/06 02:25:17;;;;;;;1.42;1.33;;;;;;;19.16;60.40;98671.69;2068005;28;20064;-46
2022/12/06 02:26:25;;;;;;;1.80;1.10;;;;;;;19.15;60.61;98672.75;2067273;28;20042;-48
2022/12/06 02:27:50;;;;;;;1.80;1.35;;;;;;;19.16;60.34;98671.69;2069456;28;20160;-48
2022/12/06 02:29:24;;;;;;;1.13;0.90;;;;;;;19.14;60.51;98669.25;2068712;28;20501;-45
2022/12/06 02:30:42;;;;;;;2.88;1.17;;;;;;;19.11;60.74;98663.44;2066612;28;20046;-48
2022/12/06 02:31:49;;;;;;;1.65;1.25;;;;;;;19.14;60.24;98663.88;2067844;28;20042;-46
2022/12/06 02:32:57;;;;;;;1.27;1.08;;;;;;;19.17;60.39;98668.81;2067984;28;20050;-47
2022/12/06 02:34:03;;;;;;;2.08;1.15;;;;;;;19.16;60.48;98667.16;2068232;28;20131;-45
2022/12/06 02:35:13;;;;;;;1.73;1.30;;;;;;;19.20;60.30;98656.84;2067099;28;20552;-48
2022/12/06 02:36:19;;;;;;;2.45;1.00;;;;;;;19.18;60.39;98664.28;2067649;28;20065;-46
2022/12/06 02:37:26;;;;;;;3.50;1.17;;;;;;;19.18;60.45;98654.34;2068980;28;20049;-46
2022/12/06 02:38:35;;;;;;;1.75;0.90;;;;;;;19.15;60.32;98659.31;2068796;28;20049;-45
2022/12/06 02:39:43;;;;;;;1.38;1.13;;;;;;;19.17;59.98;98655.38;2072599;28;20540;-45
2022/12/06 02:40:51;;;;;;;3.75;1.77;;;;;;;19.15;60.48;98657.44;2072915;28;20057;-47
2022/12/06 02:41:56;;;;;;;2.17;1.33;;;;;;;19.15;60.41;98654.75;2069088;28;20646;-46
2022/12/06 02:43:03;;;;;;;1.20;1.10;;;;;;;19.15;60.04;98659.31;2067977;28;20684;-45
2022/12/06 02:44:07;;;;;;;1.52;1.17;;;;;;;19.15;60.45;98659.31;2067155;28;20647;-46
2022/12/06 02:45:13;;;;;;;1.65;0.98;;;;;;;19.13;60.50;98661.38;2069188;28;20123;-46
2022/12/06 02:46:18;;;;;;;1.05;1.00;;;;;;;19.15;60.01;98656.63;2068304;28;20049;-46
2022/12/06 02:47:24;;;;;;;2.42;1.30;;;;;;;19.13;60.42;98648.75;2067694;28;20816;-46
2022/12/06 02:48:25;;;;;;;2.63;1.00;;;;;;;19.12;60.49;98651.66;2067548;28;20719;-45
2022/12/06 02:49:33;;;;;;;1.00;0.90;;;;;;;19.12;60.11;98655.16;2068154;28;20663;-48
2022/12/06 02:50:39;;;;;;;1.63;1.13;;;;;;;19.12;60.25;98657.84;2069660;28;20064;-46
2022/12/06 02:51:41;;;;;;;3.22;1.17;;;;;;;19.12;60.47;98659.72;2069733;28;20140;-46
2022/12/06 02:52:47;;;;;;;1.45;1.13;;;;;;;19.12;60.05;98652.47;2070405;28;20111;-48
2022/12/06 02:53:52;;;;;;;1.85;1.17;;;;;;;19.09;60.17;98662.81;2067014;28;20081;-50
2022/12/06 02:54:57;;;;;;;2.35;0.95;;;;;;;19.09;60.42;98660.13;2069250;28;20060;-47
2022/12/06 02:56:00;;;;;;;1.77;1.25;;;;;;;19.07;60.45;98663.03;2068000;28;20076;-47
2022/12/06 02:57:00;;;;;;;2.60;1.73;;;;;;;19.07;60.19;98659.50;2067467;28;20064;-47
2022/12/06 02:58:02;;;;;;;;;;;;;;;18.92;60.65;98652.47;2068756;28;20055;-48
2022/12/06 02:59:04;;;;;;;2.05;1.10;;;;;;;18.96;60.55;98653.69;2066535;28;19937;-46
2022/12/06 03:00:38;;;;;;;1.23;1.13;;;;;;;18.96;60.39;98648.31;2070208;28;20099;-46
2022/12/06 03:01:45;;;;;;;1.65;1.08;;;;;;;18.97;60.73;98655.38;2066135;28;20052;-46
2022/12/06 03:02:47;;;;;;;2.40;1.30;;;;;;;19.01;60.60;98650.41;2069095;28;20049;-46
2022/12/06 03:04:07;;;;;;;1.60;1.15;;;;;;;19.03;60.20;98655.56;2069427;28;20057;-52
2022/12/06 03:05:20;;;;;;;3.30;1.48;;;;;;;18.97;60.68;98652.69;2068588;28;20052;-49
2022/12/06 03:06:47;;;;;;;2.05;1.42;;;;;;;18.94;60.39;98650.41;2069398;28;20086;-45
2022/12/06 03:07:49;;;;;;;2.05;1.42;;;;;;;18.96;60.39;98648.31;2070577;28;20066;-46
2022/12/06 03:09:03;;;;;;;2.33;1.08;;;;;;;19.00;60.24;98651.44;2072747;28;20545;-45
2022/12/06 03:10:27;;;;;;;2.50;1.25;;;;;;;18.95;60.75;98644.00;2067515;28;20058;-46
2022/12/06 03:11:34;;;;;;;1.38;0.90;;;;;;;18.95;60.65;98644.00;2069412;28;20061;-46
2022/12/06 03:12:44;;;;;;;1.48;1.20;;;;;;;18.96;60.42;98648.31;2068548;28;20099;-47
2022/12/06 03:13:53;;;;;;;2.45;1.17;;;;;;;18.98;60.53;98643.59;2067708;28;20049;-49
2022/12/06 03:15:03;;;;;;;1.70;1.23;;;;;;;18.97;60.58;98644.63;2061343;28;20053;-48
2022/12/06 03:16:14;;;;;;;1.65;1.23;;;;;;;18.96;60.61;98642.94;2065645;28;20064;-47
2022/12/06 03:17:21;;;;;;;;;;;;;;;18.81;60.96;98645.00;2066978;28;20049;-45
2022/12/06 03:18:31;;;;;;;1.30;1.13;;;;;;;18.84;61.03;98641.91;2067761;28;19925;-45
2022/12/06 03:19:35;;;;;;;3.00;1.52;;;;;;;18.88;60.62;98640.47;2068217;28;20536;-46
2022/12/06 03:20:44;;;;;;;2.75;1.23;;;;;;;18.91;60.53;98626.59;2068519;28;20073;-46
2022/12/06 03:21:49;;;;;;;2.13;1.13;;;;;;;18.91;60.61;98631.16;2066256;28;20045;-45
2022/12/06 03:22:54;;;;;;;1.40;1.30;;;;;;;18.93;60.56;98634.47;2068469;28;20058;-46
2022/12/06 03:23:55;;;;;;;1.52;1.00;;;;;;;18.93;60.68;98632.63;2069012;28;20050;-46
2022/12/06 03:24:58;;;;;;;1.48;1.38;;;;;;;18.95;60.37;98637.81;2070449;28;20069;-48
2022/12/06 03:26:01;;;;;;;2.80;1.23;;;;;;;18.93;60.31;98635.31;2069450;28;20061;-46
2022/12/06 03:27:07;;;;;;;2.63;1.35;;;;;;;18.93;60.39;98629.94;2070474;28;20588;-45
2022/12/06 03:28:14;;;;;;;2.33;1.17;;;;;;;18.92;60.43;98633.66;2068335;28;20065;-46
2022/12/06 03:29:18;;;;;;;2.63;1.27;;;;;;;18.93;60.64;98629.09;2070055;28;20045;-46
2022/12/06 03:30:20;;;;;;;1.42;1.33;;;;;;;18.93;60.29;98635.31;2070243;28;20057;-49
2022/12/06 03:31:23;;;;;;;1.65;1.40;;;;;;;18.94;60.55;98625.38;2069164;28;20054;-47
2022/12/06 03:32:32;;;;;;;1.13;0.93;;;;;;;18.91;60.70;98629.28;2069310;28;20126;-45
2022/12/06 03:33:35;;;;;;;3.15;1.10;;;;;;;18.91;60.54;98626.59;2070628;28;20518;-48
2022/12/06 03:34:40;;;;;;;1.65;1.05;;;;;;;18.91;60.54;98631.97;2069224;28;20044;-45
2022/12/06 03:35:42;;;;;;;2.88;1.65;;;;;;;18.92;60.70;98632.84;2070731;28;20625;-45
2022/12/06 03:36:47;;;;;;;1.63;1.10;;;;;;;18.90;60.44;98630.34;2072079;28;20063;-46
2022/12/06 03:37:54;;;;;;;1.40;0.82;;;;;;;18.91;60.39;98631.97;2069460;28;20069;-53
2022/12/06 03:38:58;;;;;;;1.67;1.17;;;;;;;18.88;60.44;98631.56;2070890;28;20060;-47
2022/12/06 03:40:05;;;;;;;1.65;1.15;;;;;;;18.87;60.33;98636.13;2069944;28;20054;-45
2022/12/06 03:41:08;;;;;;;2.13;1.27;;;;;;;18.88;60.66;98626.19;2071613;28;20046;-46
2022/12/06 03:42:10;;;;;;;1.77;1.60;;;;;;;18.87;60.48;98622.69;2070136;28;20053;-45
2022/12/06 03:43:12;;;;;;;2.75;1.65;;;;;;;18.88;60.60;98618.97;2071357;28;20081;-46
2022/12/06 03:44:13;;;;;;;1.58;1.27;;;;;;;18.88;60.37;98621.66;2068477;28;20050;-46
2022/12/06 03:45:14;;;;;;;;;;;;;;;18.74;60.87;98626.19;2071128;28;20059;-46
2022/12/06 03:46:19;;;;;;;1.25;1.13;;;;;;;18.78;60.60;98621.25;2068207;28;19932;-46
2022/12/06 03:47:26;;;;;;;2.40;1.08;;;;;;;18.82;60.51;98627.84;2071427;28;20049;-46
2022/12/06 03:48:34;;;;;;;1.70;1.02;;;;;;;18.83;60.48;98626.81;2069832;28;20057;-45
2022/12/06 03:49:41;;;;;;;1.83;1.45;;;;;;;18.83;60.82;98629.50;2070998;28;20060;-45
2022/12/06 03:50:45;;;;;;;1.63;0.98;;;;;;;18.82;60.51;98633.22;2071496;28;20603;-44
2022/12/06 03:51:48;;;;;;;2.35;1.17;;;;;;;18.83;60.45;98631.34;2069876;28;20053;-46
2022/12/06 03:52:50;;;;;;;1.95;1.17;;;;;;;18.83;60.66;98634.03;2070174;28;20140;-47
2022/12/06 03:53:53;;;;;;;1.35;1.25;;;;;;;18.84;60.31;98630.34;2074012;28;20464;-47
2022/12/06 03:54:54;;;;;;;1.35;0.80;;;;;;;18.84;60.85;98631.16;2070125;28;20058;-49
2022/12/06 03:55:56;;;;;;;;;;;;;;;18.71;60.87;98626.56;2071497;28;20064;-48
2022/12/06 03:56:57;;;;;;;2.58;1.27;;;;;;;18.74;60.97;98625.34;2070902;28;19921;-48
2022/12/06 03:57:58;;;;;;;;;;;;;;;18.64;60.93;98624.91;2069606;28;20049;-45
2022/12/06 03:59:00;;;;;;;2.05;0.93;;;;;;;18.69;61.06;98622.41;2068925;28;19925;-46
2022/12/06 04:00:01;;;;;;;2.13;1.20;;;;;;;18.75;60.74;98621.66;2068454;28;20050;-47
2022/12/06 04:01:04;;;;;;;2.60;0.80;;;;;;;18.77;60.48;98627.63;2069543;28;20544;-48
2022/12/06 04:02:04;;;;;;;1.55;1.13;;;;;;;18.81;60.63;98628.06;2070765;28;20125;-45
2022/12/06 04:03:06;;;;;;;;;;;;;;;18.66;60.82;98625.53;2069572;28;20049;-46
2022/12/06 04:04:09;;;;;;;2.60;1.20;;;;;;;18.70;60.86;98622.22;2070129;28;19932;-49
2022/12/06 04:05:11;;;;;;;1.52;1.17;;;;;;;18.72;60.78;98620.16;2069639;28;20073;-46
2022/12/06 04:06:12;;;;;;;1.60;0.90;;;;;;;18.73;60.70;98618.31;2071760;28;20057;-46
2022/12/06 04:07:14;;;;;;;1.52;1.17;;;;;;;18.76;60.51;98617.94;2068393;28;20053;-46
2022/12/06 04:08:15;;;;;;;1.67;1.38;;;;;;;18.76;60.77;98617.94;2070721;28;20056;-49
2022/12/06 04:10:36;;;;;;;1.80;1.38;;;;;;;18.66;61.12;98622.81;2071822;28;19921;-47
2022/12/06 04:11:37;;;;;;;1.23;0.93;;;;;;;18.71;60.64;98625.75;2070470;28;20059;-45
2022/12/06 04:13:58;;;;;;;2.63;1.00;;;;;;;18.64;61.13;98619.53;2071916;28;19922;-49
2022/12/06 04:14:59;;;;;;;2.95;1.10;;;;;;;18.69;60.79;98627.78;2070996;28;20053;-48
2022/12/06 04:16:01;;;;;;;;;;;;;;;18.58;61.14;98626.53;2074885;28;20059;-48
2022/12/06 04:18:22;;;;;;;2.55;1.30;;;;;;;18.63;60.95;98617.88;2069544;28;20045;-46
2022/12/06 04:19:24;;;;;;;2.25;1.13;;;;;;;18.70;60.65;98624.09;2072595;28;20061;-45
2022/12/06 04:20:27;;;;;;;2.08;1.88;;;;;;;18.70;60.45;98621.41;2071740;28;20045;-46
2022/12/06 04:23:05;;;;;;;1.67;1.23;;;;;;;18.69;60.75;98617.03;2071832;28;20049;-47
2022/12/06 04:24:06;;;;;;;1.10;1.00;;;;;;;18.66;60.86;98612.91;2068199;28;20096;-47
2022/12/06 04:25:07;;;;;;;;;;;;;;;18.57;60.88;98613.31;2072763;28;20413;-45
2022/12/06 04:26:11;;;;;;;1.60;1.33;;;;;;;18.61;61.07;98610.03;2069276;28;20461;-46
2022/12/06 04:39:07;;;;;;;1.20;0.70;;;;;;;18.62;60.89;98611.69;2071158;28;20038;-45
2022/12/06 04:40:10;;;;;;;1.65;1.27;;;;;;;18.61;60.98;98606.50;2072654;28;20053;-44
2022/12/06 04:43:40;;;;;;;2.33;1.38;;;;;;;18.62;60.94;98606.31;2070356;28;20049;-46
2022/12/06 04:43:52;;;;;;;2.08;1.00;;;;;;;18.59;60.84;98601.34;2068670;28;20045;-44
2022/12/06 04:44:53;;;;;;;;;;;;;;;18.50;61.42;98605.25;2069677;28;20129;-46
2022/12/06 04:45:54;;;;;;;1.30;1.13;;;;;;;18.50;61.03;98600.72;2068920;28;19931;-47
2022/12/06 04:46:56;;;;;;;;;;;;;;;18.43;61.19;98591.78;2069669;28;20054;-45
2022/12/06 04:47:57;;;;;;;;;;;;;;;18.36;61.52;98601.72;2069513;28;19922;-44
2022/12/06 04:48:58;;;;;;;;;;;;;;;18.32;61.55;98605.81;2070109;28;19929;-45
2022/12/06 04:49:59;;;;;;;1.20;0.82;;;;;;;18.40;61.49;98594.06;2069468;28;19928;-46
2022/12/06 04:51:02;;;;;;;2.58;1.20;;;;;;;18.49;61.30;98595.53;2070226;28;20913;-46
2022/12/06 04:52:06;;;;;;;1.98;1.40;;;;;;;18.53;61.18;98597.63;2069826;28;20057;-45
2022/12/06 04:53:07;;;;;;;1.20;1.00;;;;;;;18.55;60.76;98594.72;2070689;28;20644;-44
2022/12/06 04:54:08;;;;;;;;;;;;;;;18.43;61.20;98585.59;2068832;28;20057;-45
2022/12/06 04:55:10;;;;;;;1.67;0.95;;;;;;;18.47;61.28;98593.06;2069527;28;19929;-45
2022/12/06 04:56:11;;;;;;;2.15;1.42;;;;;;;18.51;61.09;98596.97;2068330;28;20508;-45
2022/12/06 04:57:13;;;;;;;;;;;;;;;18.39;61.40;98595.94;2069729;28;20048;-48
2022/12/06 04:58:15;;;;;;;1.70;1.20;;;;;;;18.46;61.17;98587.88;2069122;28;20567;-48
2022/12/06 04:59:17;;;;;;;2.10;1.10;;;;;;;18.49;60.93;98588.28;2068842;28;20049;-47
2022/12/06 05:00:18;;;;;;;1.73;0.88;;;;;;;18.53;60.96;98586.88;2070263;28;20049;-46
2022/12/06 05:01:20;;;;;;;4.00;1.02;;;;;;;18.56;61.02;98590.19;2069753;28;20125;-47
2022/12/06 05:02:22;;;;;;;1.20;1.10;;;;;;;18.54;60.61;98587.69;2069083;28;23933;-46
2022/12/06 05:03:23;;;;;;;1.05;1.00;;;;;;;18.57;60.68;98589.97;2068924;28;20053;-47
2022/12/06 05:04:25;;;;;;;0.98;0.77;;;;;;;18.61;60.46;98587.69;2069314;28;20125;-44
2022/12/06 05:05:26;;;;;;;1.77;1.13;;;;;;;18.66;60.45;98593.28;2069806;28;20045;-45
2022/12/06 05:06:29;;;;;;;;;;;;;;;18.58;60.66;98596.16;2069600;28;20052;-47
2022/12/06 05:07:30;;;;;;;2.13;1.30;;;;;;;18.68;60.24;98596.59;2072387;28;19936;-47
2022/12/06 05:08:32;;;;;;;1.20;1.10;;;;;;;18.75;60.23;98595.63;2067795;28;20056;-46
2022/12/06 05:09:33;;;;;;;1.23;0.82;;;;;;;18.80;60.17;98580.72;2069592;28;20057;-48
2022/12/06 05:10:34;;;;;;;1.70;1.27;;;;;;;18.87;60.06;98587.75;2068903;28;20050;-45
2022/12/06 05:11:36;;;;;;;;;;;;;;;18.82;59.88;98595.59;2069176;28;21351;-46
2022/12/06 05:12:37;;;;;;;2.30;1.30;;;;;;;18.90;60.00;98591.91;2070019;28;20004;-45
2022/12/06 05:13:38;;;;;;;;;;;;;;;18.84;59.89;98585.47;2069074;28;20057;-46
2022/12/06 05:14:40;;;;;;;1.55;1.10;;;;;;;18.87;59.88;98587.75;2070346;28;20555;-45
2022/12/06 05:15:48;;;;;;;2.00;1.50;;;;;;;18.93;59.87;98592.28;2069569;28;22232;-46
2022/12/06 05:16:50;;;;;;;2.10;1.10;;;;;;;19.00;60.08;98588.78;2069966;28;20053;-47
2022/12/06 05:17:51;;;;;;;0.90;0.90;;;;;;;19.04;59.77;98595.41;2068705;28;20049;-45
2022/12/06 05:18:53;;;;;;;;;;;;;;;18.97;59.94;98585.50;2068704;28;22127;-47
2022/12/06 05:19:53;;;;;;;1.70;1.27;;;;;;;19.03;60.06;98585.66;2068389;28;19929;-45
2022/12/06 05:21:01;;;;;;;;;;;;;;;19.01;59.82;98587.75;2069851;28;20063;-46
2022/12/06 05:22:04;;;;;;;0.77;0.77;;;;;;;19.10;59.86;98581.13;2069752;28;20689;-48
2022/12/06 05:23:04;;;;;;;2.05;0.70;;;;;;;19.15;59.71;98584.03;2066889;28;20049;-49
2022/12/06 05:24:06;;;;;;;;;;;;;;;19.13;59.67;98589.59;2068470;28;20474;-44